createdAt,value
2022-11-06T00:01:18.150Z,-1.22
2022-11-06T00:03:46.518Z,-1.24
2022-11-06T00:06:38.109Z,-1.24
2022-11-06T00:09:10.116Z,-1.25
2022-11-06T00:11:40.162Z,-1.23
2022-11-06T00:14:09.029Z,-1.22
2022-11-06T00:16:40.365Z,-1.22
2022-11-06T00:19:09.635Z,-1.19
2022-11-06T00:21:37.977Z,-1.19
2022-11-06T00:24:08.401Z,-1.21
2022-11-06T00:26:36.806Z,-1.22
2022-11-06T00:29:05.868Z,-1.25
2022-11-06T00:31:37.676Z,-1.26
2022-11-06T00:34:08.149Z,-1.28
2022-11-06T00:36:40.348Z,-1.29
2022-11-06T00:39:11.420Z,-1.28
2022-11-06T00:41:40.011Z,-1.29
2022-11-06T00:44:10.764Z,-1.28
2022-11-06T00:46:40.322Z,-1.31
2022-11-06T00:49:09.061Z,-1.28
2022-11-06T00:51:44.091Z,-1.29
2022-11-06T00:54:14.284Z,-1.30
2022-11-06T00:56:43.580Z,-1.30
2022-11-06T00:59:15.214Z,-1.31
2022-11-06T01:01:45.793Z,-1.33
2022-11-06T01:04:18.549Z,-1.33
2022-11-06T01:06:50.602Z,-1.33
2022-11-06T01:09:20.246Z,-1.34
2022-11-06T01:14:41.370Z,-1.39
2022-11-06T01:17:09.829Z,-1.41
2022-11-06T01:19:40.250Z,-1.41
2022-11-06T01:22:09.106Z,-1.41
2022-11-06T01:24:41.772Z,-1.43
2022-11-06T01:27:27.164Z,-1.42
2022-11-06T01:29:57.462Z,-1.44
2022-11-06T01:32:25.814Z,-1.46
2022-11-06T01:34:54.084Z,-1.46
2022-11-06T01:37:22.173Z,-1.47
2022-11-06T01:39:55.244Z,-1.48
2022-11-06T01:42:23.933Z,-1.44
2022-11-06T01:47:53.063Z,-1.38
2022-11-06T01:50:22.347Z,-1.45
2022-11-06T01:52:54.450Z,-1.46
2022-11-06T01:55:35.029Z,-1.47
2022-11-06T01:58:06.369Z,-1.47
2022-11-06T02:00:44.297Z,-1.45
2022-11-06T02:03:15.803Z,-1.46
2022-11-06T02:05:45.913Z,-1.43
2022-11-06T02:08:17.463Z,-1.43
2022-11-06T02:11:03.041Z,-1.43
2022-11-06T02:19:50.169Z,-1.40
2022-11-06T02:22:38.263Z,-1.46
2022-11-06T02:27:56.961Z,-1.41
2022-11-06T02:30:32.670Z,-1.49
2022-11-06T02:33:07.762Z,-1.52
2022-11-06T02:35:43.106Z,-1.52
2022-11-06T02:38:19.241Z,-1.53
2022-11-06T02:40:57.734Z,-1.53
2022-11-06T02:43:40.512Z,-1.51
2022-11-06T02:46:20.422Z,-1.52
2022-11-06T02:48:59.682Z,-1.51
2022-11-06T02:51:34.497Z,-1.48
2022-11-06T02:54:14.555Z,-1.49
2022-11-06T02:56:58.683Z,-1.47
2022-11-06T02:59:44.446Z,-1.47
2022-11-06T03:02:29.823Z,-1.49
2022-11-06T03:05:23.197Z,-1.49
2022-11-06T03:08:06.541Z,-1.47
2022-11-06T03:11:07.138Z,-1.46
2022-11-06T03:17:10.417Z,-1.45
2022-11-06T03:20:11.103Z,-1.53
2022-11-06T03:29:02.391Z,-1.53
2022-11-06T03:31:42.270Z,-1.56
2022-11-06T03:34:28.495Z,-1.53
2022-11-06T03:37:22.497Z,-1.52
2022-11-06T03:40:04.077Z,-1.54
2022-11-06T03:42:52.451Z,-1.56
2022-11-06T03:45:28.205Z,-1.56
2022-11-06T03:48:35.559Z,-1.59
2022-11-06T03:56:34.837Z,-1.54
2022-11-06T03:59:08.799Z,-1.62
2022-11-06T04:01:55.350Z,-1.59
2022-11-06T04:04:35.765Z,-1.63
2022-11-06T04:07:16.015Z,-1.62
2022-11-06T04:10:12.601Z,-1.63
2022-11-06T04:13:08.973Z,-1.65
2022-11-06T04:15:47.391Z,-1.63
2022-11-06T04:18:21.435Z,-1.63
2022-11-06T04:21:28.436Z,-1.64
2022-11-06T04:32:26.400Z,-1.64
2022-11-06T04:38:38.763Z,-1.66
2022-11-06T04:41:38.405Z,-1.74
2022-11-06T04:46:56.100Z,-1.69
2022-11-06T04:49:35.577Z,-1.75
2022-11-06T04:52:16.005Z,-1.74
2022-11-06T04:55:01.063Z,-1.74
2022-11-06T04:57:48.525Z,-1.63
2022-11-06T05:00:26.331Z,-1.69
2022-11-06T05:03:06.913Z,-1.68
2022-11-06T05:05:50.644Z,-1.66
2022-11-06T05:08:34.074Z,-1.66
2022-11-06T05:11:24.041Z,-1.62
2022-11-06T05:14:00.138Z,-1.61
2022-11-06T05:16:35.759Z,-1.64
2022-11-06T05:19:28.414Z,-1.64
2022-11-06T05:25:14.610Z,-1.70
2022-11-06T05:28:11.913Z,-1.76
2022-11-06T05:30:53.046Z,-1.80
2022-11-06T05:33:26.522Z,-1.81
2022-11-06T05:36:14.286Z,-1.81
2022-11-06T05:38:55.801Z,-1.77
2022-11-06T05:41:41.222Z,-1.76
2022-11-06T05:44:19.812Z,-1.74
2022-11-06T05:46:55.517Z,-1.73
2022-11-06T05:49:31.476Z,-1.68
2022-11-06T05:52:04.020Z,-1.72
2022-11-06T05:54:34.406Z,-1.72
2022-11-06T05:57:08.341Z,-1.70
2022-11-06T05:59:37.099Z,-1.68
2022-11-06T06:02:06.889Z,-1.64
2022-11-06T06:04:36.683Z,-1.60
2022-11-06T06:07:22.524Z,-1.62
2022-11-06T06:10:11.744Z,-1.63
2022-11-06T06:12:55.661Z,-1.61
2022-11-06T06:15:27.505Z,-1.63
2022-11-06T06:18:02.129Z,-1.59
2022-11-06T06:21:02.484Z,-1.59
2022-11-06T06:23:32.386Z,-1.57
2022-11-06T06:26:04.155Z,-1.53
2022-11-06T06:28:33.039Z,-1.50
2022-11-06T06:31:08.672Z,-1.52
2022-11-06T06:33:43.648Z,-1.55
2022-11-06T06:36:14.637Z,-1.59
2022-11-06T06:38:55.179Z,-1.57
2022-11-06T06:41:27.979Z,-1.58
2022-11-06T06:43:59.383Z,-1.61
2022-11-06T06:46:31.422Z,-1.59
2022-11-06T06:49:03.583Z,-1.53
2022-11-06T06:51:44.426Z,-1.51
2022-11-06T06:54:20.178Z,-1.48
2022-11-06T06:56:55.836Z,-1.48
2022-11-06T06:59:29.408Z,-1.51
2022-11-06T07:02:06.441Z,-1.48
2022-11-06T07:04:37.598Z,-1.47
2022-11-06T07:07:14.117Z,-1.41
2022-11-06T07:09:45.734Z,-1.35
2022-11-06T07:12:17.655Z,-1.28
2022-11-06T07:14:52.270Z,-1.27
2022-11-06T07:17:40.195Z,-1.30
2022-11-06T07:20:23.858Z,-1.34
2022-11-06T07:23:17.023Z,-1.33
2022-11-06T07:26:04.009Z,-1.30
2022-11-06T07:28:41.267Z,-1.28
2022-11-06T07:31:19.354Z,-1.37
2022-11-06T07:34:14.194Z,-1.32
2022-11-06T07:36:58.743Z,-1.36
2022-11-06T07:39:42.491Z,-1.31
2022-11-06T07:42:32.274Z,-1.33
2022-11-06T07:45:06.725Z,-1.33
2022-11-06T07:47:58.887Z,-1.31
2022-11-06T07:50:36.991Z,-1.28
2022-11-06T07:53:14.907Z,-1.26
2022-11-06T07:56:21.035Z,-1.22
2022-11-06T07:59:42.345Z,-1.18
2022-11-06T08:02:18.444Z,-1.19
2022-11-06T08:05:04.438Z,-1.15
2022-11-06T08:07:41.954Z,-1.08
2022-11-06T08:10:14.644Z,-1.06
2022-11-06T08:12:54.345Z,-1.08
2022-11-06T08:15:33.846Z,-1.04
2022-11-06T08:18:11.114Z,-1.01
2022-11-06T08:20:47.918Z,-0.95
2022-11-06T08:23:30.153Z,-0.95
2022-11-06T08:26:08.361Z,-0.91
2022-11-06T08:28:44.382Z,-0.93
2022-11-06T08:31:20.455Z,-0.95
2022-11-06T08:33:55.633Z,-0.91
2022-11-06T08:36:35.214Z,-0.85
2022-11-06T08:39:07.800Z,-0.85
2022-11-06T08:41:37.689Z,-0.92
2022-11-06T08:44:09.970Z,-0.92
2022-11-06T08:46:50.725Z,-0.90
2022-11-06T08:49:23.597Z,-0.94
2022-11-06T08:51:52.664Z,-0.94
2022-11-06T08:54:22.256Z,-0.93
2022-11-06T08:56:53.357Z,-0.95
2022-11-06T08:59:29.933Z,-0.90
2022-11-06T09:02:01.947Z,-0.84
2022-11-06T09:04:31.489Z,-0.76
2022-11-06T09:07:03.690Z,-0.76
2022-11-06T09:09:38.709Z,-0.79
2022-11-06T09:12:07.919Z,-0.83
2022-11-06T09:14:36.772Z,-0.85
2022-11-06T09:17:06.254Z,-0.83
2022-11-06T09:19:40.959Z,-0.79
2022-11-06T09:22:10.809Z,-0.77
2022-11-06T09:25:02.729Z,-0.76
2022-11-06T09:27:55.876Z,-0.78
2022-11-06T09:30:33.613Z,-0.78
2022-11-06T09:33:09.166Z,-0.74
2022-11-06T09:35:51.832Z,-0.76
2022-11-06T09:38:31.701Z,-0.79
2022-11-06T09:41:10.030Z,-0.80
2022-11-06T09:52:07.336Z,-0.83
2022-11-06T09:55:32.985Z,-0.80
2022-11-06T09:58:56.469Z,-0.79
2022-11-06T10:02:31.639Z,-0.76
2022-11-06T10:05:49.578Z,-0.77
2022-11-06T10:08:41.887Z,-0.81
2022-11-06T10:14:53.851Z,-0.76
2022-11-06T10:20:37.372Z,-0.74
2022-11-06T10:26:40.530Z,-0.68
2022-11-06T10:34:52.382Z,-0.65
2022-11-06T10:37:35.060Z,-0.81
2022-11-06T10:40:20.546Z,-0.79
2022-11-06T10:45:57.897Z,-0.75
2022-11-06T10:49:15.476Z,-0.87
2022-11-06T10:55:40.687Z,-0.79
2022-11-06T10:58:24.113Z,-0.86
2022-11-06T11:01:12.561Z,-0.86
2022-11-06T11:03:55.127Z,-0.85
2022-11-06T11:06:35.628Z,-0.90
2022-11-06T11:09:34.341Z,-0.94
2022-11-06T11:12:29.819Z,-0.91
2022-11-06T11:15:30.148Z,-0.89
2022-11-06T11:18:41.573Z,-0.88
2022-11-06T11:21:54.109Z,-0.92
2022-11-06T11:24:41.686Z,-0.93
2022-11-06T11:27:21.157Z,-0.92
2022-11-06T11:30:14.839Z,-0.90
2022-11-06T11:32:55.237Z,-0.93
2022-11-06T11:35:42.584Z,-0.99
2022-11-06T11:38:23.548Z,-1.01
2022-11-06T11:41:28.930Z,-1.00
2022-11-06T11:45:35.202Z,-1.00
2022-11-06T12:08:45.685Z,-1.09
2022-11-06T12:12:34.513Z,-1.03
2022-11-06T12:18:00.619Z,-0.90
2022-11-06T12:21:22.153Z,-1.00
2022-11-06T12:24:31.725Z,-1.07
2022-11-06T12:27:48.866Z,-1.10
2022-11-06T12:59:43.653Z,-1.19
2022-11-06T13:05:26.777Z,-1.19
2022-11-06T13:14:14.278Z,-1.22
2022-11-06T14:36:34.682Z,-1.45
2022-11-06T14:43:01.613Z,-1.53
2022-11-06T15:00:37.730Z,-1.58
2022-11-06T15:15:57.064Z,-1.51
2022-11-06T17:10:32.716Z,-1.66
2022-11-06T17:49:35.523Z,-1.62
2022-11-06T17:52:48.992Z,-1.61
2022-11-06T18:11:19.393Z,-1.59
2022-11-06T18:15:07.642Z,-1.60
2022-11-06T18:23:40.789Z,-1.60
2022-11-06T18:26:27.064Z,-1.58
2022-11-06T18:29:26.009Z,-1.57
2022-11-06T18:32:29.952Z,-1.57
2022-11-06T18:35:31.111Z,-1.57
2022-11-06T18:38:36.250Z,-1.59
2022-11-06T18:41:23.563Z,-1.59
2022-11-06T18:44:21.223Z,-1.57
2022-11-06T18:47:32.966Z,-1.58
2022-11-06T18:50:44.973Z,-1.58
2022-11-06T19:19:25.340Z,-1.59
2022-11-06T19:25:17.914Z,-1.57
2022-11-06T19:28:23.247Z,-1.56
2022-11-06T19:36:08.580Z,-1.56
2022-11-06T19:48:32.189Z,-1.55
2022-11-06T19:55:57.243Z,-1.54
2022-11-06T20:03:32.308Z,-1.51
2022-11-06T20:06:43.208Z,-1.51
2022-11-06T20:12:40.052Z,-1.51
2022-11-06T20:26:57.633Z,-1.46
2022-11-06T20:48:57.598Z,-1.40
2022-11-06T20:52:13.214Z,-1.39
2022-11-06T20:55:34.833Z,-1.39
2022-11-06T21:06:39.035Z,-1.35
2022-11-06T21:20:58.914Z,-1.33
2022-11-06T21:26:41.199Z,-1.29
2022-11-06T21:29:55.347Z,-1.28
2022-11-06T21:33:50.791Z,-1.25
2022-11-06T21:37:51.420Z,-1.25
2022-11-06T21:40:35.419Z,-1.23
2022-11-06T21:44:07.606Z,-1.24
2022-11-06T21:47:01.380Z,-1.23
2022-11-06T21:57:57.654Z,-1.20
2022-11-06T22:01:02.854Z,-1.19
2022-11-06T22:03:52.169Z,-1.17
2022-11-06T22:06:45.112Z,-1.15
2022-11-06T22:09:26.059Z,-1.15
2022-11-06T22:12:05.268Z,-1.14
2022-11-06T22:14:56.211Z,-1.13
2022-11-06T22:17:52.231Z,-1.14
2022-11-06T22:21:19.014Z,-1.13
2022-11-06T22:37:43.555Z,-1.07
2022-11-06T22:41:11.631Z,-1.04
2022-11-06T22:47:45.458Z,-1.04
2022-11-06T22:50:23.243Z,-1.03
2022-11-06T22:53:09.428Z,-1.02
2022-11-06T22:56:08.290Z,-1.01
2022-11-06T22:58:58.476Z,-1.01
2022-11-06T23:01:42.440Z,-1.01
2022-11-06T23:04:21.132Z,-1.00
2022-11-06T23:06:56.897Z,-0.98
2022-11-06T23:09:45.612Z,-0.97
2022-11-06T23:12:49.310Z,-0.97
2022-11-06T23:15:50.511Z,-0.94
2022-11-06T23:18:31.992Z,-0.93
2022-11-06T23:21:27.630Z,-0.91
2022-11-06T23:24:18.731Z,-0.90
2022-11-06T23:26:55.011Z,-0.88
2022-11-06T23:29:45.924Z,-0.86
2022-11-06T23:32:30.681Z,-0.85
2022-11-06T23:35:08.088Z,-0.84
2022-11-06T23:37:51.912Z,-0.82
2022-11-06T23:40:36.143Z,-0.82
2022-11-06T23:43:12.881Z,-0.81
2022-11-06T23:45:54.931Z,-0.79
2022-11-06T23:48:39.953Z,-0.79
2022-11-06T23:51:16.813Z,-0.77
2022-11-06T23:53:58.819Z,-0.76
2022-11-06T23:56:49.289Z,-0.75
2022-11-06T23:59:22.380Z,-0.73
